createdAt,value
2023-07-05T00:00:57.060Z,17.60
2023-07-05T00:03:23.910Z,17.70
2023-07-05T00:05:50.554Z,17.70
2023-07-05T00:08:17.250Z,17.80
2023-07-05T00:10:43.913Z,17.70
2023-07-05T00:13:10.884Z,17.70
2023-07-05T00:15:37.498Z,17.70
2023-07-05T00:18:04.994Z,17.80
2023-07-05T00:20:31.712Z,17.80
2023-07-05T00:22:58.363Z,17.80
2023-07-05T00:25:26.585Z,17.90
2023-07-05T00:27:53.213Z,17.90
2023-07-05T00:30:19.827Z,18.00
2023-07-05T00:32:46.513Z,18.10
2023-07-05T00:35:13.197Z,18.10
2023-07-05T00:37:39.869Z,18.10
2023-07-05T00:40:09.859Z,18.10
2023-07-05T00:42:36.495Z,18.20
2023-07-05T00:45:42.130Z,18.10
2023-07-05T00:48:13.982Z,18.20
2023-07-05T00:50:43.600Z,18.20
2023-07-05T00:53:12.061Z,18.10
2023-07-05T00:55:41.952Z,18.10
2023-07-05T00:58:08.792Z,17.90
2023-07-05T01:00:36.493Z,17.80
2023-07-05T01:03:08.149Z,17.80
2023-07-05T01:05:36.377Z,17.70
2023-07-05T01:08:06.648Z,17.60
2023-07-05T01:10:33.538Z,17.70
2023-07-05T01:13:11.624Z,17.60
2023-07-05T01:15:44.025Z,17.60
2023-07-05T01:18:23.508Z,17.50
2023-07-05T01:21:09.079Z,17.50
2023-07-05T01:23:59.332Z,17.50
2023-07-05T01:26:43.795Z,17.50
2023-07-05T01:29:48.233Z,17.50
2023-07-05T01:32:30.301Z,17.40
2023-07-05T01:35:00.721Z,17.40
2023-07-05T01:37:37.713Z,17.30
2023-07-05T01:40:13.652Z,17.30
2023-07-05T01:42:42.538Z,17.30
2023-07-05T01:45:10.167Z,17.30
2023-07-05T01:47:46.989Z,17.30
2023-07-05T01:50:42.201Z,17.30
2023-07-05T01:53:19.930Z,17.30
2023-07-05T01:56:11.241Z,17.40
2023-07-05T01:58:43.116Z,17.30
2023-07-05T02:01:12.278Z,17.30
2023-07-05T02:03:39.840Z,17.40
2023-07-05T02:06:08.755Z,17.30
2023-07-05T02:08:40.863Z,17.30
2023-07-05T02:11:07.477Z,17.20
2023-07-05T02:13:34.100Z,17.20
2023-07-05T02:16:00.841Z,17.30
2023-07-05T02:18:30.336Z,17.30
2023-07-05T02:20:57.743Z,17.30
2023-07-05T02:23:24.583Z,17.30
2023-07-05T02:25:52.544Z,17.30
2023-07-05T02:28:19.990Z,17.30
2023-07-05T02:30:46.662Z,17.30
2023-07-05T02:33:13.313Z,17.30
2023-07-05T02:35:40.811Z,17.40
2023-07-05T02:38:07.948Z,17.40
2023-07-05T02:40:34.591Z,17.40
2023-07-05T02:43:01.529Z,17.50
2023-07-05T02:45:28.747Z,17.50
2023-07-05T02:47:55.822Z,17.50
2023-07-05T02:50:22.517Z,17.60
2023-07-05T02:52:49.256Z,17.60
2023-07-05T02:55:15.999Z,17.60
2023-07-05T02:57:42.707Z,17.60
2023-07-05T03:00:11.661Z,17.60
2023-07-05T03:02:38.396Z,17.60
2023-07-05T03:05:10.152Z,17.60
2023-07-05T03:07:37.431Z,17.50
2023-07-05T03:10:05.092Z,17.60
2023-07-05T03:12:31.785Z,17.50
2023-07-05T03:14:59.453Z,17.50
2023-07-05T03:17:26.489Z,17.60
2023-07-05T03:19:57.210Z,17.60
2023-07-05T03:22:24.084Z,17.60
2023-07-05T03:24:52.514Z,17.60
2023-07-05T03:27:19.927Z,17.60
2023-07-05T03:29:46.789Z,17.60
2023-07-05T03:32:13.417Z,17.60
2023-07-05T03:34:40.045Z,17.70
2023-07-05T03:37:06.722Z,17.70
2023-07-05T03:39:33.334Z,17.60
2023-07-05T03:42:01.818Z,17.70
2023-07-05T03:44:28.462Z,17.70
2023-07-05T03:46:55.067Z,17.60
2023-07-05T03:49:21.739Z,17.60
2023-07-05T03:51:48.444Z,17.60
2023-07-05T03:54:15.143Z,17.50
2023-07-05T03:56:41.735Z,17.50
2023-07-05T03:59:08.764Z,17.50
2023-07-05T04:01:35.422Z,17.40
2023-07-05T04:04:03.353Z,17.40
2023-07-05T04:06:33.272Z,17.30
2023-07-05T04:08:59.932Z,17.10
2023-07-05T04:11:27.038Z,17.00
2023-07-05T04:13:55.716Z,16.80
2023-07-05T04:16:25.429Z,16.70
2023-07-05T04:18:54.744Z,16.60
2023-07-05T04:21:22.324Z,16.50
2023-07-05T04:23:49.214Z,16.40
2023-07-05T04:26:20.239Z,16.30
2023-07-05T04:28:48.160Z,16.30
2023-07-05T04:31:18.982Z,16.20
2023-07-05T04:33:46.777Z,16.10
2023-07-05T04:36:26.917Z,16.00
2023-07-05T04:38:57.171Z,16.10
2023-07-05T04:41:24.041Z,16.10
2023-07-05T04:43:52.524Z,16.10
2023-07-05T04:46:19.980Z,16.00
2023-07-05T04:48:46.738Z,16.00
2023-07-05T04:51:13.417Z,15.90
2023-07-05T04:53:40.076Z,15.80
2023-07-05T04:56:06.988Z,15.90
2023-07-05T04:58:33.607Z,15.80
2023-07-05T05:01:03.806Z,15.80
2023-07-05T05:03:30.943Z,15.80
2023-07-05T05:05:57.616Z,15.90
2023-07-05T05:08:25.202Z,15.90
2023-07-05T05:10:58.188Z,15.80
2023-07-05T05:13:25.651Z,15.80
2023-07-05T05:15:52.370Z,15.80
2023-07-05T05:18:19.896Z,15.80
2023-07-05T05:20:47.328Z,15.90
2023-07-05T05:23:14.092Z,15.90
2023-07-05T05:25:44.921Z,16.00
2023-07-05T05:28:12.996Z,16.10
2023-07-05T05:30:43.931Z,16.20
2023-07-05T05:33:13.184Z,16.20
2023-07-05T05:35:39.839Z,16.20
2023-07-05T05:38:06.517Z,16.20
2023-07-05T05:40:36.276Z,16.20
2023-07-05T05:43:02.926Z,16.20
2023-07-05T05:45:29.598Z,16.30
2023-07-05T05:47:56.718Z,16.30
2023-07-05T05:50:25.538Z,16.10
2023-07-05T05:52:52.367Z,16.10
2023-07-05T05:55:20.343Z,16.10
2023-07-05T05:57:47.076Z,16.20
2023-07-05T06:00:14.215Z,16.30
2023-07-05T06:02:40.909Z,16.30
2023-07-05T06:05:09.646Z,16.40
2023-07-05T06:07:36.349Z,16.40
2023-07-05T06:10:03.123Z,16.40
2023-07-05T06:12:29.784Z,16.40
2023-07-05T06:14:56.452Z,16.40
2023-07-05T06:17:23.088Z,16.30
2023-07-05T06:19:49.834Z,16.30
2023-07-05T06:22:16.468Z,16.30
2023-07-05T06:24:43.437Z,16.40
2023-07-05T06:27:10.225Z,16.40
2023-07-05T06:29:36.921Z,16.50
2023-07-05T06:32:03.877Z,16.40
2023-07-05T06:34:30.508Z,16.50
2023-07-05T06:36:57.143Z,16.70
2023-07-05T06:39:23.782Z,16.80
2023-07-05T06:41:50.395Z,17.00
2023-07-05T06:44:17.029Z,17.00
2023-07-05T06:46:43.726Z,17.00
2023-07-05T06:49:10.405Z,17.10
2023-07-05T06:51:37.104Z,17.30
2023-07-05T06:54:03.799Z,17.30
2023-07-05T06:56:30.633Z,16.90
2023-07-05T06:58:57.379Z,16.80
2023-07-05T07:01:24.191Z,16.70
2023-07-05T07:03:50.942Z,16.60
2023-07-05T07:06:17.692Z,16.80
2023-07-05T07:08:44.499Z,17.00
2023-07-05T07:11:12.810Z,16.90
2023-07-05T07:13:39.754Z,16.80
2023-07-05T07:16:17.070Z,16.80
2023-07-05T07:18:49.145Z,16.50
2023-07-05T07:21:17.924Z,16.60
2023-07-05T07:23:48.078Z,16.40
2023-07-05T07:26:20.538Z,16.40
2023-07-05T07:28:49.790Z,16.50
2023-07-05T07:31:20.750Z,16.50
2023-07-05T07:33:48.380Z,16.40
2023-07-05T07:36:21.276Z,16.50
2023-07-05T07:38:47.994Z,16.50
2023-07-05T07:41:20.270Z,16.60
2023-07-05T07:43:47.672Z,16.60
2023-07-05T07:46:17.308Z,16.50
2023-07-05T07:48:48.175Z,16.20
2023-07-05T07:51:27.666Z,16.20
2023-07-05T07:54:02.989Z,16.30
2023-07-05T07:56:30.332Z,16.60
2023-07-05T07:58:59.661Z,17.40
2023-07-05T08:01:31.751Z,17.40
2023-07-05T08:04:00.760Z,17.20
2023-07-05T08:06:43.065Z,16.90
2023-07-05T08:09:15.678Z,17.00
2023-07-05T08:11:42.440Z,17.40
2023-07-05T08:14:10.353Z,17.90
2023-07-05T08:16:37.433Z,18.00
2023-07-05T08:19:04.146Z,17.80
2023-07-05T08:21:30.790Z,18.00
2023-07-05T08:24:00.247Z,17.80
2023-07-05T08:26:33.330Z,17.60
2023-07-05T08:28:59.981Z,17.80
2023-07-05T08:31:26.708Z,18.80
2023-07-05T08:33:53.776Z,19.30
2023-07-05T08:36:35.580Z,19.20
2023-07-05T08:39:04.879Z,18.90
2023-07-05T08:41:47.088Z,19.10
2023-07-05T08:44:31.861Z,18.70
2023-07-05T08:47:02.941Z,18.10
2023-07-05T08:49:37.963Z,17.80
2023-07-05T08:52:06.267Z,17.60
2023-07-05T08:54:35.411Z,17.40
2023-07-05T08:57:11.603Z,17.40
2023-07-05T08:59:52.844Z,17.20
2023-07-05T09:02:23.810Z,17.10
2023-07-05T09:04:51.241Z,17.00
2023-07-05T09:07:27.139Z,17.00
2023-07-05T09:10:08.817Z,16.90
2023-07-05T09:12:53.417Z,17.00
2023-07-05T09:15:24.499Z,17.60
2023-07-05T09:18:11.681Z,20.00
2023-07-05T09:20:41.143Z,20.10
2023-07-05T09:23:17.434Z,20.20
2023-07-05T09:25:55.096Z,19.30
2023-07-05T09:28:28.947Z,18.80
2023-07-05T09:30:56.087Z,19.20
2023-07-05T09:33:33.477Z,19.10
2023-07-05T09:36:06.483Z,19.80
2023-07-05T09:38:37.260Z,21.90
2023-07-05T09:41:05.424Z,21.80
2023-07-05T09:43:37.555Z,21.90
2023-07-05T09:46:18.517Z,21.60
2023-07-05T09:48:47.999Z,21.80
2023-07-05T09:51:15.234Z,22.00
2023-07-05T09:53:57.850Z,20.90
2023-07-05T09:56:28.857Z,20.30
2023-07-05T09:59:21.799Z,19.90
2023-07-05T10:01:52.555Z,19.60
2023-07-05T10:04:19.403Z,19.20
2023-07-05T10:06:47.785Z,18.90
2023-07-05T10:09:17.199Z,18.70
2023-07-05T10:11:49.757Z,18.60
2023-07-05T10:14:21.027Z,18.40
2023-07-05T10:16:56.995Z,18.30
2023-07-05T10:19:32.344Z,18.40
2023-07-05T10:22:16.691Z,18.50
2023-07-05T10:24:58.634Z,19.50
2023-07-05T10:27:36.401Z,21.50
2023-07-05T10:30:18.024Z,21.40
2023-07-05T10:33:06.340Z,20.60
2023-07-05T10:35:34.701Z,21.60
2023-07-05T10:38:02.214Z,21.00
2023-07-05T10:40:29.105Z,20.60
2023-07-05T10:43:00.601Z,20.30
2023-07-05T10:45:35.838Z,20.10
2023-07-05T10:48:03.820Z,20.50
2023-07-05T10:50:34.282Z,20.80
2023-07-05T10:53:31.303Z,21.90
2023-07-05T10:56:15.832Z,22.40
2023-07-05T10:58:47.563Z,23.50
2023-07-05T11:01:28.039Z,23.00
2023-07-05T11:04:12.484Z,22.90
2023-07-05T11:06:41.715Z,21.80
2023-07-05T11:09:11.633Z,21.00
2023-07-05T11:11:49.275Z,20.40
2023-07-05T11:14:17.877Z,20.20
2023-07-05T11:16:47.322Z,20.10
2023-07-05T11:19:20.851Z,20.00
2023-07-05T11:21:51.734Z,20.10
2023-07-05T11:24:39.183Z,21.30
2023-07-05T11:27:32.337Z,20.90
2023-07-05T11:30:02.047Z,20.90
2023-07-05T11:33:03.944Z,21.10
2023-07-05T11:35:48.949Z,20.50
2023-07-05T11:39:00.519Z,20.20
2023-07-05T11:41:39.333Z,20.00
2023-07-05T11:44:26.386Z,20.30
2023-07-05T11:46:54.232Z,20.30
2023-07-05T11:49:20.853Z,20.20
2023-07-05T11:51:50.631Z,19.90
2023-07-05T11:54:20.467Z,19.70
2023-07-05T11:56:48.987Z,19.70
2023-07-05T11:59:18.296Z,19.70
2023-07-05T12:01:45.212Z,20.10
2023-07-05T12:04:17.516Z,20.40
2023-07-05T12:06:46.064Z,20.10
2023-07-05T12:09:20.944Z,20.10
2023-07-05T12:11:55.911Z,20.10
2023-07-05T12:14:23.259Z,20.20
2023-07-05T12:16:50.651Z,21.70
2023-07-05T12:19:33.176Z,23.50
2023-07-05T12:22:03.760Z,22.00
2023-07-05T12:24:44.267Z,22.70
2023-07-05T12:27:21.755Z,22.50
2023-07-05T12:29:58.458Z,22.10
2023-07-05T12:32:28.007Z,22.40
2023-07-05T12:35:16.280Z,22.80
2023-07-05T12:37:43.826Z,22.20
2023-07-05T12:40:14.437Z,21.90
2023-07-05T12:43:00.461Z,22.50
2023-07-05T12:45:29.872Z,22.90
2023-07-05T12:47:57.402Z,23.20
2023-07-05T12:50:26.255Z,23.10
2023-07-05T12:53:23.372Z,22.40
2023-07-05T12:56:12.078Z,22.10
2023-07-05T12:58:51.174Z,22.60
2023-07-05T13:01:21.970Z,22.60
2023-07-05T13:03:51.305Z,22.60
2023-07-05T13:06:19.808Z,24.10
2023-07-05T13:08:49.518Z,24.40
2023-07-05T13:11:22.010Z,24.30
2023-07-05T13:13:58.681Z,24.10
2023-07-05T13:16:28.742Z,24.20
2023-07-05T13:19:05.696Z,24.00
2023-07-05T13:21:46.844Z,24.10
2023-07-05T13:24:28.766Z,24.30
2023-07-05T13:26:56.499Z,24.70
2023-07-05T13:29:31.878Z,24.50
2023-07-05T13:31:59.564Z,24.90
2023-07-05T13:34:27.475Z,24.80
2023-07-05T13:37:05.967Z,25.20
2023-07-05T13:39:33.320Z,24.50
2023-07-05T13:42:02.914Z,24.00
2023-07-05T13:44:29.941Z,23.80
2023-07-05T13:46:56.703Z,23.90
2023-07-05T13:49:25.428Z,23.80
2023-07-05T13:51:58.860Z,23.90
2023-07-05T13:54:25.943Z,24.50
2023-07-05T13:56:52.576Z,24.60
2023-07-05T13:59:20.275Z,23.80
2023-07-05T14:01:50.020Z,23.20
2023-07-05T14:04:17.499Z,22.90
2023-07-05T14:06:44.234Z,22.70
2023-07-05T14:09:11.840Z,22.40
2023-07-05T14:11:41.433Z,22.40
2023-07-05T14:14:10.911Z,22.30
2023-07-05T14:16:37.853Z,22.60
2023-07-05T14:19:05.421Z,23.00
2023-07-05T14:21:37.676Z,22.80
2023-07-05T14:24:12.128Z,22.50
2023-07-05T14:26:38.829Z,22.30
2023-07-05T14:29:06.591Z,22.80
2023-07-05T14:31:34.008Z,23.10
2023-07-05T14:34:00.876Z,22.70
2023-07-05T14:36:28.180Z,22.50
2023-07-05T14:38:55.234Z,22.30
2023-07-05T14:44:09.465Z,22.50
2023-07-05T14:46:36.098Z,22.80
2023-07-05T14:49:02.760Z,22.50
2023-07-05T14:51:29.391Z,22.10
2023-07-05T14:53:56.541Z,21.90
2023-07-05T14:56:23.265Z,21.80
2023-07-05T14:58:50.279Z,22.00
2023-07-05T15:01:19.129Z,22.60
2023-07-05T15:03:47.892Z,23.00
2023-07-05T15:06:16.048Z,23.20
2023-07-05T15:08:43.338Z,22.90
2023-07-05T15:11:13.851Z,22.30
2023-07-05T15:13:46.884Z,21.80
2023-07-05T15:16:23.494Z,21.40
2023-07-05T15:18:50.859Z,21.50
2023-07-05T15:21:19.763Z,21.90
2023-07-05T15:23:51.814Z,22.50
2023-07-05T15:26:19.515Z,22.80
2023-07-05T15:28:46.308Z,23.10
2023-07-05T15:31:14.205Z,23.10
2023-07-05T15:33:41.024Z,22.80
2023-07-05T15:36:07.808Z,22.90
2023-07-05T15:38:34.500Z,23.00
2023-07-05T15:41:05.404Z,23.30
2023-07-05T15:43:35.756Z,23.20
2023-07-05T15:46:02.717Z,23.00
2023-07-05T15:48:29.342Z,22.70
2023-07-05T15:50:56.336Z,22.40
2023-07-05T15:53:23.342Z,22.10
2023-07-05T15:55:50.001Z,22.20
2023-07-05T15:58:20.852Z,22.50
2023-07-05T16:00:48.847Z,22.60
2023-07-05T16:03:18.770Z,22.40
2023-07-05T16:05:45.695Z,22.50
2023-07-05T16:08:12.413Z,22.50
2023-07-05T16:10:41.512Z,22.30
2023-07-05T16:13:09.682Z,22.20
2023-07-05T16:15:36.965Z,22.00
2023-07-05T16:18:05.174Z,21.90
2023-07-05T16:20:36.660Z,21.80
2023-07-05T16:23:04.891Z,21.70
2023-07-05T16:25:32.152Z,21.70
2023-07-05T16:27:58.918Z,21.70
2023-07-05T16:30:25.733Z,21.70
2023-07-05T16:32:52.478Z,21.50
2023-07-05T16:35:19.203Z,21.50
2023-07-05T16:37:45.902Z,21.40
2023-07-05T16:40:12.828Z,21.10
2023-07-05T16:42:40.081Z,21.10
2023-07-05T16:45:08.893Z,21.00
2023-07-05T16:47:35.808Z,20.80
2023-07-05T16:50:02.862Z,20.80
2023-07-05T16:52:29.821Z,20.90
2023-07-05T16:54:56.514Z,20.80
2023-07-05T16:57:23.311Z,20.70
2023-07-05T16:59:49.956Z,20.70
2023-07-05T17:02:19.392Z,20.60
2023-07-05T17:04:46.103Z,20.60
2023-07-05T17:07:12.788Z,20.50
2023-07-05T17:09:39.420Z,20.50
2023-07-05T17:12:06.772Z,20.30
2023-07-05T17:14:35.879Z,20.20
2023-07-05T17:17:05.355Z,20.30
2023-07-05T17:19:32.434Z,19.10
2023-07-05T17:22:01.074Z,18.20
2023-07-05T17:24:27.711Z,17.80
2023-07-05T17:26:54.397Z,17.40
2023-07-05T17:29:21.001Z,17.20
2023-07-05T17:31:47.676Z,17.20
2023-07-05T17:34:17.200Z,17.20
2023-07-05T17:36:43.795Z,17.20
2023-07-05T17:39:10.393Z,17.20
2023-07-05T17:41:37.749Z,17.10
2023-07-05T17:44:04.534Z,17.20
2023-07-05T17:46:35.585Z,17.20
2023-07-05T17:49:05.047Z,17.00
2023-07-05T17:51:33.268Z,17.00
2023-07-05T17:54:00.082Z,17.00
2023-07-05T17:56:27.093Z,17.00
2023-07-05T17:58:58.232Z,17.00
2023-07-05T18:01:28.046Z,16.90
2023-07-05T18:03:55.654Z,16.90
2023-07-05T18:06:22.336Z,17.10
2023-07-05T18:08:52.733Z,16.80
2023-07-05T18:11:22.631Z,16.90
2023-07-05T18:13:50.479Z,16.90
2023-07-05T18:16:20.300Z,17.00
2023-07-05T18:18:47.940Z,17.00
2023-07-05T18:21:16.271Z,16.90
2023-07-05T18:23:43.823Z,16.90
2023-07-05T18:26:13.400Z,16.80
2023-07-05T18:28:40.073Z,16.80
2023-07-05T18:31:07.805Z,16.80
2023-07-05T18:33:35.677Z,16.80
2023-07-05T18:36:04.175Z,16.80
2023-07-05T18:38:31.934Z,16.80
2023-07-05T18:41:02.726Z,16.80
2023-07-05T18:43:29.349Z,16.80
2023-07-05T18:45:59.681Z,16.90
2023-07-05T18:48:27.399Z,16.90
2023-07-05T18:50:55.857Z,16.90
2023-07-05T18:53:24.324Z,16.80
2023-07-05T18:55:54.231Z,16.80
2023-07-05T18:58:21.231Z,16.90
2023-07-05T19:00:58.922Z,16.80
2023-07-05T19:03:26.753Z,16.80
2023-07-05T19:06:00.003Z,16.90
2023-07-05T19:08:27.129Z,16.80
2023-07-05T19:11:07.283Z,16.80
2023-07-05T19:13:34.377Z,16.70
2023-07-05T19:16:02.939Z,16.60
2023-07-05T19:18:29.666Z,16.70
2023-07-05T19:20:59.141Z,16.60
2023-07-05T19:23:25.919Z,16.60
2023-07-05T19:25:58.192Z,16.70
2023-07-05T19:28:26.304Z,16.70
2023-07-05T19:30:56.946Z,16.60
2023-07-05T19:33:24.123Z,16.60
2023-07-05T19:35:51.814Z,16.60
2023-07-05T19:38:18.563Z,16.70
2023-07-05T19:40:53.431Z,16.60
2023-07-05T19:43:27.200Z,16.60
2023-07-05T19:45:54.290Z,16.70
2023-07-05T19:48:22.167Z,16.60
2023-07-05T19:50:49.383Z,16.60
2023-07-05T19:53:16.343Z,16.50
2023-07-05T19:55:47.015Z,16.50
2023-07-05T19:58:13.678Z,16.50
2023-07-05T20:00:42.500Z,16.50
2023-07-05T20:03:10.886Z,16.50
2023-07-05T20:05:39.244Z,16.50
2023-07-05T20:08:07.217Z,16.50
2023-07-05T20:10:35.499Z,16.60
2023-07-05T20:13:03.195Z,16.60
2023-07-05T20:15:32.398Z,16.60
2023-07-05T20:17:59.907Z,16.40
2023-07-05T20:20:27.707Z,16.40
2023-07-05T20:22:54.771Z,16.50
2023-07-05T20:25:23.888Z,16.50
2023-07-05T20:27:52.949Z,16.40
2023-07-05T20:30:21.159Z,16.40
2023-07-05T20:32:48.548Z,16.40
2023-07-05T20:35:16.184Z,16.40
2023-07-05T20:37:54.321Z,16.30
2023-07-05T20:40:26.839Z,16.40
2023-07-05T20:42:53.679Z,16.20
2023-07-05T20:45:20.385Z,16.10
2023-07-05T20:47:47.050Z,16.10
2023-07-05T20:50:13.769Z,16.10
2023-07-05T20:52:42.444Z,16.20
2023-07-05T20:55:12.728Z,16.20
2023-07-05T20:57:39.556Z,16.20
2023-07-05T21:00:10.361Z,16.10
2023-07-05T21:02:37.831Z,16.10
2023-07-05T21:05:05.083Z,16.00
2023-07-05T21:07:31.836Z,15.90
2023-07-05T21:09:58.587Z,16.00
2023-07-05T21:12:26.518Z,16.00
2023-07-05T21:14:53.246Z,15.90
2023-07-05T21:17:19.934Z,15.80
2023-07-05T21:19:46.601Z,15.90
2023-07-05T21:22:13.373Z,15.80
2023-07-05T21:24:40.110Z,15.80
2023-07-05T21:27:06.897Z,15.70
2023-07-05T21:29:33.575Z,15.70
2023-07-05T21:32:00.186Z,15.60
2023-07-05T21:34:26.794Z,15.60
2023-07-05T21:36:53.434Z,15.70
2023-07-05T21:39:20.964Z,15.80
2023-07-05T21:41:48.459Z,15.70
2023-07-05T21:44:16.500Z,15.70
2023-07-05T21:46:46.230Z,15.80
2023-07-05T21:49:12.918Z,15.80
2023-07-05T21:51:45.245Z,15.70
2023-07-05T21:54:12.607Z,15.70
2023-07-05T21:56:42.798Z,15.70
2023-07-05T21:59:10.801Z,15.70
2023-07-05T22:01:37.865Z,15.70
2023-07-05T22:04:06.756Z,15.70
2023-07-05T22:06:33.780Z,15.70
2023-07-05T22:09:01.433Z,15.70
2023-07-05T22:11:28.102Z,15.70
2023-07-05T22:13:57.769Z,15.50
2023-07-05T22:16:27.601Z,15.40
2023-07-05T22:18:56.020Z,15.50
2023-07-05T22:21:24.463Z,15.40
2023-07-05T22:23:51.146Z,15.50
2023-07-05T22:26:18.883Z,15.50
2023-07-05T22:28:45.545Z,15.50
2023-07-05T22:31:12.232Z,15.50
2023-07-05T22:33:38.897Z,15.60
2023-07-05T22:36:07.072Z,15.60
2023-07-05T22:38:34.268Z,15.60
2023-07-05T22:41:01.301Z,15.50
2023-07-05T22:43:32.236Z,15.50
2023-07-05T22:46:01.806Z,15.50
2023-07-05T22:48:34.187Z,15.40
2023-07-05T22:51:02.087Z,15.40
2023-07-05T22:53:28.998Z,15.40
2023-07-05T22:55:56.605Z,15.40
2023-07-05T22:58:29.483Z,15.40
2023-07-05T23:00:57.958Z,15.30
2023-07-05T23:03:26.093Z,15.30
2023-07-05T23:05:59.544Z,15.30
2023-07-05T23:08:26.182Z,15.30
2023-07-05T23:11:03.783Z,15.30
2023-07-05T23:13:32.574Z,15.40
2023-07-05T23:15:59.833Z,15.30
2023-07-05T23:18:27.132Z,15.20
2023-07-05T23:20:54.222Z,15.20
2023-07-05T23:23:21.392Z,15.20
2023-07-05T23:25:48.393Z,15.10
2023-07-05T23:28:15.117Z,15.10
2023-07-05T23:30:41.699Z,15.10
2023-07-05T23:33:10.137Z,15.10
2023-07-05T23:35:37.029Z,15.10
2023-07-05T23:38:03.734Z,15.00
2023-07-05T23:40:30.410Z,15.10
2023-07-05T23:42:59.387Z,15.00
2023-07-05T23:45:27.207Z,15.00
2023-07-05T23:47:57.829Z,15.00
2023-07-05T23:50:24.576Z,14.90
2023-07-05T23:52:52.065Z,14.90
2023-07-05T23:55:19.307Z,15.00
2023-07-05T23:57:49.285Z,15.00
